createdAt,value
2022-09-24T00:01:29.049Z,96043.38
2022-09-24T00:03:59.418Z,96040.19
2022-09-24T00:06:26.512Z,96036.31
2022-09-24T00:08:56.886Z,96038.66
2022-09-24T00:11:24.933Z,96034.66
2022-09-24T00:13:52.369Z,96029.50
2022-09-24T00:16:21.652Z,96027.19
2022-09-24T00:18:47.482Z,96025.09
2022-09-24T00:21:18.436Z,96022.41
2022-09-24T00:23:48.237Z,96018.94
2022-09-24T00:26:32.608Z,96024.03
2022-09-24T00:28:59.287Z,96014.03
2022-09-24T00:31:27.230Z,96022.34
2022-09-24T00:33:53.879Z,96015.63
2022-09-24T00:36:21.030Z,96018.59
2022-09-24T00:38:53.009Z,96010.13
2022-09-24T00:41:20.981Z,96018.72
2022-09-24T00:43:48.666Z,96016.09
2022-09-24T00:46:21.148Z,96018.91
2022-09-24T00:48:49.687Z,96012.38
2022-09-24T00:51:20.165Z,96022.09
2022-09-24T00:53:49.033Z,96021.22
2022-09-24T00:56:16.178Z,96020.41
2022-09-24T00:58:51.632Z,96020.41
2022-09-24T01:01:18.777Z,96018.53
2022-09-24T01:03:46.280Z,96018.81
2022-09-24T01:06:13.170Z,96020.47
2022-09-24T01:08:39.723Z,96019.94
2022-09-24T01:11:50.453Z,96018.56
2022-09-24T01:14:44.239Z,96013.25
2022-09-24T01:17:44.941Z,96008.56
2022-09-24T01:20:10.727Z,96016.66
2022-09-24T01:22:54.373Z,96007.06
2022-09-24T01:25:32.348Z,96008.84
2022-09-24T01:28:31.290Z,95996.09
2022-09-24T01:31:03.316Z,96001.81
2022-09-24T01:33:31.872Z,95997.16
2022-09-24T01:36:06.092Z,95989.41
2022-09-24T01:38:37.902Z,95990.72
2022-09-24T01:41:07.007Z,95989.94
2022-09-24T01:43:33.274Z,95989.66
2022-09-24T01:46:03.450Z,95987.66
2022-09-24T01:48:29.632Z,95992.13
2022-09-24T01:51:27.145Z,95985.34
2022-09-24T01:54:26.448Z,95981.22
2022-09-24T01:57:07.172Z,95977.78
2022-09-24T01:59:43.351Z,95979.66
2022-09-24T02:02:28.179Z,95974.91
2022-09-24T02:05:26.502Z,95980.75
2022-09-24T02:08:04.431Z,95974.34
2022-09-24T02:10:37.200Z,95970.75
2022-09-24T02:13:06.976Z,95975.78
2022-09-24T02:15:36.657Z,95965.41
2022-09-24T02:18:08.239Z,95969.59
2022-09-24T02:20:35.813Z,95963.28
2022-09-24T02:23:04.185Z,95965.03
2022-09-24T02:25:36.537Z,95970.00
2022-09-24T02:28:02.535Z,95967.38
2022-09-24T02:30:32.237Z,95962.09
2022-09-24T02:32:58.861Z,95963.63
2022-09-24T02:35:24.676Z,95968.16
2022-09-24T02:37:50.471Z,95966.28
2022-09-24T02:40:16.412Z,95959.22
2022-09-24T02:42:42.911Z,95963.00
2022-09-24T02:45:10.617Z,95952.63
2022-09-24T02:47:36.878Z,95953.88
2022-09-24T02:50:03.111Z,95952.31
2022-09-24T02:52:28.922Z,95947.00
2022-09-24T02:54:54.718Z,95947.47
2022-09-24T02:57:20.517Z,95947.78
2022-09-24T02:59:51.457Z,95949.38
2022-09-24T03:02:17.284Z,95955.78
2022-09-24T03:04:43.106Z,95947.59
2022-09-24T03:07:09.529Z,95955.28
2022-09-24T03:09:35.276Z,95945.94
2022-09-24T03:12:01.563Z,95945.25
2022-09-24T03:14:27.430Z,95946.91
2022-09-24T03:16:53.213Z,95942.53
2022-09-24T03:19:19.022Z,95938.88
2022-09-24T03:21:44.757Z,95940.25
2022-09-24T03:24:10.594Z,95944.50
2022-09-24T03:26:37.307Z,95941.88
2022-09-24T03:29:03.530Z,95941.03
2022-09-24T03:31:29.381Z,95930.91
2022-09-24T03:33:56.670Z,95934.69
2022-09-24T03:36:25.036Z,95934.16
2022-09-24T03:38:55.988Z,95936.03
2022-09-24T03:41:26.867Z,95931.78
2022-09-24T03:43:53.418Z,95930.47
2022-09-24T03:46:19.508Z,95932.03
2022-09-24T03:48:46.516Z,95924.13
2022-09-24T03:51:15.090Z,95927.22
2022-09-24T03:53:41.166Z,95924.53
2022-09-24T03:56:07.941Z,95928.72
2022-09-24T03:58:37.180Z,95928.75
2022-09-24T04:01:03.099Z,95926.81
2022-09-24T04:03:28.906Z,95927.88
2022-09-24T04:05:55.046Z,95928.13
2022-09-24T04:08:22.826Z,95924.81
2022-09-24T04:10:49.914Z,95928.81
2022-09-24T04:13:16.945Z,95924.50
2022-09-24T04:15:42.974Z,95922.13
2022-09-24T04:18:09.305Z,95923.88
2022-09-24T04:20:36.148Z,95928.66
2022-09-24T04:23:03.230Z,95922.56
2022-09-24T04:25:30.792Z,95918.25
2022-09-24T04:28:02.079Z,95922.91
2022-09-24T04:30:29.297Z,95917.88
2022-09-24T04:32:59.172Z,95917.28
2022-09-24T04:35:25.151Z,95917.72
2022-09-24T04:37:50.947Z,95916.22
2022-09-24T04:40:17.817Z,95916.47
2022-09-24T04:42:45.625Z,95918.59
2022-09-24T04:45:13.078Z,95917.59
2022-09-24T04:47:41.927Z,95918.69
2022-09-24T04:50:10.626Z,95921.31
2022-09-24T04:52:37.314Z,95923.09
2022-09-24T04:55:04.230Z,95916.47
2022-09-24T04:57:35.562Z,95913.56
2022-09-24T05:00:07.608Z,95908.22
2022-09-24T05:02:33.508Z,95910.34
2022-09-24T05:04:59.425Z,95914.47
2022-09-24T05:07:25.933Z,95910.88
2022-09-24T05:09:51.734Z,95909.56
2022-09-24T05:12:19.781Z,95910.50
2022-09-24T05:14:46.012Z,95906.72
2022-09-24T05:17:11.879Z,95905.03
2022-09-24T05:19:37.700Z,95910.94
2022-09-24T05:22:03.592Z,95914.22
2022-09-24T05:24:29.430Z,95902.88
2022-09-24T05:27:10.343Z,95908.25
2022-09-24T05:29:42.633Z,95899.06
2022-09-24T05:32:14.601Z,95906.97
2022-09-24T05:34:42.955Z,95907.94
2022-09-24T05:37:09.697Z,95894.88
2022-09-24T05:39:35.573Z,95898.63
2022-09-24T05:42:03.506Z,95899.25
2022-09-24T05:44:30.514Z,95895.88
2022-09-24T05:46:56.778Z,95899.44
2022-09-24T05:49:23.097Z,95902.31
2022-09-24T05:51:50.235Z,95901.97
2022-09-24T05:54:17.210Z,95899.69
2022-09-24T05:56:43.441Z,95905.31
2022-09-24T05:59:09.756Z,95905.25
2022-09-24T06:01:35.636Z,95905.63
2022-09-24T06:04:06.167Z,95898.38
2022-09-24T06:06:34.731Z,95902.13
2022-09-24T06:09:00.707Z,95904.53
2022-09-24T06:11:27.424Z,95906.03
2022-09-24T06:13:53.201Z,95907.06
2022-09-24T06:16:19.209Z,95908.66
2022-09-24T06:18:45.702Z,95900.47
2022-09-24T06:21:14.054Z,95906.47
2022-09-24T06:23:41.834Z,95908.22
2022-09-24T06:26:10.735Z,95909.72
2022-09-24T06:28:37.510Z,95905.03
2022-09-24T06:31:03.945Z,95910.31
2022-09-24T06:33:29.977Z,95907.97
2022-09-24T06:36:00.119Z,95911.31
2022-09-24T06:38:26.675Z,95911.09
2022-09-24T06:40:52.695Z,95904.78
2022-09-24T06:43:18.516Z,95907.88
2022-09-24T06:45:44.820Z,95910.63
2022-09-24T06:48:12.821Z,95913.78
2022-09-24T06:50:41.420Z,95916.56
2022-09-24T06:53:08.231Z,95923.63
2022-09-24T06:55:35.282Z,95923.09
2022-09-24T06:58:05.866Z,95927.06
2022-09-24T07:00:32.676Z,95927.31
2022-09-24T07:02:58.627Z,95932.94
2022-09-24T07:05:24.673Z,95925.91
2022-09-24T07:07:50.906Z,95934.69
2022-09-24T07:10:16.799Z,95937.53
2022-09-24T07:12:42.875Z,95932.53
2022-09-24T07:15:09.721Z,95936.38
2022-09-24T07:17:35.718Z,95937.97
2022-09-24T07:20:02.836Z,95935.97
2022-09-24T07:22:28.642Z,95938.28
2022-09-24T07:24:54.390Z,95932.50
2022-09-24T07:27:22.992Z,95936.97
2022-09-24T07:29:49.151Z,95940.28
2022-09-24T07:32:18.971Z,95949.66
2022-09-24T07:34:45.203Z,95951.53
2022-09-24T07:37:11.681Z,95945.53
2022-09-24T07:39:37.557Z,95953.25
2022-09-24T07:42:05.000Z,95954.88
2022-09-24T07:44:30.857Z,95957.28
2022-09-24T07:46:57.697Z,95957.59
2022-09-24T07:49:23.865Z,95961.09
2022-09-24T07:51:49.778Z,95960.56
2022-09-24T07:54:17.375Z,95963.41
2022-09-24T07:56:43.450Z,95967.19
2022-09-24T07:59:10.473Z,95967.13
2022-09-24T08:01:36.900Z,95960.09
2022-09-24T08:04:03.975Z,95963.38
2022-09-24T08:06:37.872Z,95966.44
2022-09-24T08:09:04.873Z,95961.78
2022-09-24T08:11:30.652Z,95965.28
2022-09-24T08:13:57.038Z,95968.72
2022-09-24T08:16:25.162Z,95965.38
2022-09-24T08:18:51.106Z,95979.75
2022-09-24T08:21:17.114Z,95975.72
2022-09-24T08:23:43.409Z,95963.13
2022-09-24T08:26:10.966Z,95972.53
2022-09-24T08:28:37.526Z,95964.69
2022-09-24T08:31:08.263Z,95968.72
2022-09-24T08:33:35.680Z,95976.19
2022-09-24T08:36:07.380Z,95972.25
2022-09-24T08:38:34.011Z,95972.84
2022-09-24T08:41:36.697Z,95975.53
2022-09-24T08:44:49.521Z,95978.69
2022-09-24T08:47:47.446Z,95974.75
2022-09-24T08:50:19.039Z,95972.38
2022-09-24T08:52:53.845Z,95978.50
2022-09-24T08:55:46.687Z,95980.34
2022-09-24T08:58:41.890Z,95980.63
2022-09-24T09:01:36.712Z,95985.91
2022-09-24T09:04:09.966Z,95987.78
2022-09-24T09:07:01.516Z,95988.53
2022-09-24T09:09:45.553Z,95991.72
2022-09-24T09:12:20.102Z,95982.72
2022-09-24T09:15:17.079Z,95986.69
2022-09-24T09:17:45.803Z,95981.13
2022-09-24T09:20:17.034Z,95985.88
2022-09-24T09:22:47.512Z,95982.19
2022-09-24T09:25:25.135Z,95981.66
2022-09-24T09:27:57.846Z,95990.16
2022-09-24T09:30:23.901Z,95997.59
2022-09-24T09:33:00.888Z,95990.94
2022-09-24T09:35:46.037Z,95986.72
2022-09-24T09:38:27.831Z,95990.16
2022-09-24T09:41:05.767Z,95992.03
2022-09-24T09:43:31.957Z,95990.41
2022-09-24T09:46:19.667Z,95991.75
2022-09-24T09:48:51.556Z,95990.44
2022-09-24T09:51:22.324Z,95993.06
2022-09-24T09:53:59.749Z,95986.19
2022-09-24T09:56:31.425Z,95990.94
2022-09-24T09:59:06.242Z,95996.81
2022-09-24T10:01:35.042Z,95994.16
2022-09-24T10:04:03.849Z,95992.81
2022-09-24T10:06:35.466Z,95996.53
2022-09-24T10:09:18.919Z,95992.53
2022-09-24T10:11:46.117Z,95993.34
2022-09-24T10:14:14.173Z,95992.28
2022-09-24T10:16:47.340Z,95984.06
2022-09-24T10:19:24.044Z,95982.22
2022-09-24T10:21:52.012Z,95986.19
2022-09-24T10:24:28.489Z,95985.13
2022-09-24T10:26:54.418Z,95977.16
2022-09-24T10:29:57.056Z,95980.34
2022-09-24T10:32:25.520Z,95979.81
2022-09-24T10:35:20.937Z,95978.16
2022-09-24T10:37:55.474Z,95978.31
2022-09-24T10:40:29.264Z,95977.09
2022-09-24T10:43:00.131Z,95979.84
2022-09-24T10:45:49.873Z,95973.28
2022-09-24T10:48:18.981Z,95984.56
2022-09-24T10:50:55.391Z,95975.50
2022-09-24T10:53:43.403Z,95975.84
2022-09-24T10:56:15.109Z,95975.06
2022-09-24T10:59:03.165Z,95980.47
2022-09-24T11:01:47.101Z,95979.63
2022-09-24T11:04:33.983Z,95984.34
2022-09-24T11:07:28.233Z,95983.47
2022-09-24T11:10:00.447Z,95975.63
2022-09-24T11:12:34.594Z,95977.09
2022-09-24T11:15:11.132Z,95979.25
2022-09-24T11:17:50.974Z,95976.22
2022-09-24T11:20:22.596Z,95978.72
2022-09-24T11:23:23.461Z,95975.78
2022-09-24T11:26:03.168Z,95969.00
2022-09-24T11:29:14.546Z,95973.81
2022-09-24T11:31:49.805Z,95978.09
2022-09-24T11:34:37.079Z,95980.03
2022-09-24T11:37:22.088Z,95973.13
2022-09-24T11:40:02.680Z,95965.47
2022-09-24T11:42:57.616Z,95961.50
2022-09-24T11:45:41.446Z,95969.47
2022-09-24T11:48:23.215Z,95966.03
2022-09-24T11:51:01.109Z,95977.44
2022-09-24T11:53:44.259Z,95970.56
2022-09-24T11:56:13.913Z,95974.00
2022-09-24T11:58:48.116Z,95975.03
2022-09-24T12:01:24.384Z,95975.31
2022-09-24T12:04:05.249Z,95970.28
2022-09-24T12:06:44.222Z,95974.00
2022-09-24T12:09:22.325Z,95972.13
2022-09-24T12:11:54.570Z,95974.25
2022-09-24T12:14:30.098Z,95974.22
2022-09-24T12:17:06.594Z,95971.81
2022-09-24T12:19:41.429Z,95973.84
2022-09-24T12:22:09.940Z,95970.91
2022-09-24T12:24:53.508Z,95967.97
2022-09-24T12:27:34.226Z,95967.47
2022-09-24T12:30:36.330Z,95972.97
2022-09-24T12:33:22.347Z,95962.91
2022-09-24T12:36:18.819Z,95967.06
2022-09-24T12:38:49.768Z,95972.28
2022-09-24T12:41:24.717Z,95972.63
2022-09-24T12:44:00.652Z,95970.47
2022-09-24T12:46:40.430Z,95975.50
2022-09-24T12:49:24.670Z,95969.41
2022-09-24T12:51:56.008Z,95974.88
2022-09-24T12:54:31.079Z,95970.63
2022-09-24T12:57:25.278Z,95975.44
2022-09-24T12:59:59.941Z,95972.47
2022-09-24T13:02:46.762Z,95975.69
2022-09-24T13:05:28.573Z,95981.78
2022-09-24T13:08:00.133Z,95977.88
2022-09-24T13:10:27.553Z,95967.09
2022-09-24T13:12:55.116Z,95968.50
2022-09-24T13:15:34.881Z,95964.75
2022-09-24T13:18:10.384Z,95962.09
2022-09-24T13:20:40.653Z,95954.38
2022-09-24T13:23:13.275Z,95964.47
2022-09-24T13:25:39.099Z,95967.91
2022-09-24T13:28:35.747Z,95961.31
2022-09-24T13:31:22.971Z,95969.72
2022-09-24T13:33:54.361Z,95961.75
2022-09-24T13:36:48.189Z,95964.91
2022-09-24T13:39:27.104Z,95960.41
2022-09-24T13:42:03.361Z,95961.84
2022-09-24T13:44:34.020Z,95965.50
2022-09-24T13:47:38.228Z,95970.13
2022-09-24T13:50:28.384Z,95969.78
2022-09-24T13:52:56.966Z,95969.78
2022-09-24T13:55:52.496Z,95963.22
2022-09-24T13:58:32.586Z,95972.53
2022-09-24T14:01:01.875Z,95972.53
2022-09-24T14:03:28.759Z,95968.91
2022-09-24T14:05:56.506Z,95972.88
2022-09-24T14:08:24.045Z,95970.69
2022-09-24T14:10:50.518Z,95966.78
2022-09-24T14:13:25.861Z,95973.66
2022-09-24T14:16:06.787Z,95969.88
2022-09-24T14:18:33.260Z,95969.66
2022-09-24T14:21:15.433Z,95975.84
2022-09-24T14:23:52.047Z,95970.84
2022-09-24T14:26:31.390Z,95969.53
2022-09-24T14:29:05.462Z,95972.16
2022-09-24T14:31:31.400Z,95974.72
2022-09-24T14:34:03.314Z,95971.88
2022-09-24T14:36:29.285Z,95965.16
2022-09-24T14:39:04.791Z,95965.00
2022-09-24T14:41:33.822Z,95963.94
2022-09-24T14:44:05.404Z,95957.84
2022-09-24T14:46:35.305Z,95960.56
2022-09-24T14:49:16.755Z,95957.13
2022-09-24T14:51:52.079Z,95960.00
2022-09-24T14:54:28.110Z,95959.47
2022-09-24T14:56:54.494Z,95956.25
2022-09-24T14:59:35.498Z,95961.84
2022-09-24T15:02:14.790Z,95962.69
2022-09-24T15:04:45.430Z,95957.34
2022-09-24T15:07:20.722Z,95956.78
2022-09-24T15:10:01.759Z,95956.81
2022-09-24T15:12:36.303Z,95959.50
2022-09-24T15:15:26.611Z,95953.91
2022-09-24T15:17:52.422Z,95962.16
2022-09-24T15:20:18.268Z,95957.84
2022-09-24T15:22:46.130Z,95960.22
2022-09-24T15:25:13.770Z,95957.28
2022-09-24T15:27:41.864Z,95957.66
2022-09-24T15:30:16.918Z,95962.63
2022-09-24T15:32:42.879Z,95948.91
2022-09-24T15:35:13.959Z,95960.53
2022-09-24T15:37:40.146Z,95954.41
2022-09-24T15:40:29.964Z,95958.31
2022-09-24T15:42:55.788Z,95961.69
2022-09-24T15:45:23.687Z,95961.25
2022-09-24T15:47:50.610Z,95964.69
2022-09-24T15:50:18.320Z,95967.63
2022-09-24T15:52:49.766Z,95966.28
2022-09-24T15:55:18.479Z,95971.25
2022-09-24T15:57:46.016Z,95970.00
2022-09-24T16:00:20.360Z,95959.44
2022-09-24T16:02:51.975Z,95963.38
2022-09-24T16:05:18.653Z,95961.31
2022-09-24T16:07:44.842Z,95965.50
2022-09-24T16:10:12.611Z,95965.81
2022-09-24T16:12:39.528Z,95967.13
2022-09-24T16:15:06.384Z,95964.75
2022-09-24T16:17:32.668Z,95962.66
2022-09-24T16:19:58.760Z,95957.84
2022-09-24T16:22:24.623Z,95955.66
2022-09-24T16:24:50.422Z,95959.84
2022-09-24T16:27:16.203Z,95966.31
2022-09-24T16:29:41.916Z,95967.13
2022-09-24T16:32:07.783Z,95967.97
2022-09-24T16:34:33.844Z,95965.59
2022-09-24T16:37:00.007Z,95968.97
2022-09-24T16:39:25.765Z,95968.16
2022-09-24T16:41:52.198Z,95971.56
2022-09-24T16:44:18.541Z,95979.84
2022-09-24T16:46:44.840Z,95976.31
2022-09-24T16:49:11.697Z,95975.31
2022-09-24T16:51:37.901Z,95974.59
2022-09-24T16:54:07.364Z,95977.69
2022-09-24T16:56:33.619Z,95978.00
2022-09-24T16:58:59.798Z,95974.78
2022-09-24T17:01:25.666Z,95973.44
2022-09-24T17:03:56.228Z,95969.94
2022-09-24T17:06:29.182Z,95968.88
2022-09-24T17:09:14.154Z,95974.44
2022-09-24T17:11:40.605Z,95977.94
2022-09-24T17:14:11.561Z,95975.47
2022-09-24T17:16:38.548Z,95969.59
2022-09-24T17:19:06.587Z,95975.22
2022-09-24T17:21:33.944Z,95975.09
2022-09-24T17:23:59.810Z,95981.97
2022-09-24T17:26:25.609Z,95981.44
2022-09-24T17:28:53.336Z,95983.28
2022-09-24T17:31:22.172Z,95980.56
2022-09-24T17:34:02.264Z,95984.25
2022-09-24T17:36:29.863Z,95990.28
2022-09-24T17:38:56.797Z,95999.97
2022-09-24T17:41:22.672Z,95987.03
2022-09-24T17:43:49.152Z,95999.47
2022-09-24T17:46:17.648Z,95997.25
2022-09-24T17:48:45.801Z,96003.94
2022-09-24T17:51:15.761Z,95998.84
2022-09-24T17:53:42.343Z,96003.25
2022-09-24T17:56:10.608Z,96000.34
2022-09-24T17:58:38.350Z,95997.50
2022-09-24T18:01:16.691Z,95997.16
2022-09-24T18:03:43.232Z,95989.66
2022-09-24T18:06:11.759Z,95997.56
2022-09-24T18:08:44.855Z,95998.41
2022-09-24T18:11:24.990Z,95997.41
2022-09-24T18:13:53.329Z,95997.41
2022-09-24T18:16:21.767Z,95996.28
2022-09-24T18:18:50.617Z,95999.56
2022-09-24T18:21:19.756Z,96000.84
2022-09-24T18:23:46.173Z,96007.97
2022-09-24T18:26:16.103Z,95999.38
2022-09-24T18:28:44.936Z,96002.88
2022-09-24T18:31:10.812Z,96003.59
2022-09-24T18:33:39.033Z,96014.66
2022-09-24T18:36:07.820Z,96013.88
2022-09-24T18:38:34.585Z,96018.41
2022-09-24T18:41:06.996Z,96018.72
2022-09-24T18:43:32.963Z,96012.88
2022-09-24T18:46:04.004Z,96018.75
2022-09-24T18:48:30.098Z,96013.25
2022-09-24T18:50:55.957Z,96018.03
2022-09-24T18:53:21.758Z,96016.50
2022-09-24T18:55:47.534Z,96011.72
2022-09-24T18:58:13.393Z,96012.16
2022-09-24T19:00:53.234Z,96015.94
2022-09-24T19:03:21.272Z,96016.88
2022-09-24T19:05:48.708Z,96018.34
2022-09-24T19:08:14.642Z,96012.88
2022-09-24T19:10:41.266Z,96020.97
2022-09-24T19:13:07.128Z,96014.84
2022-09-24T19:15:40.157Z,96012.66
2022-09-24T19:18:11.264Z,96019.53
2022-09-24T19:20:42.882Z,96018.94
2022-09-24T19:23:09.227Z,96020.06
2022-09-24T19:25:36.812Z,96021.91
2022-09-24T19:28:04.308Z,96022.34
2022-09-24T19:30:36.971Z,96023.44
2022-09-24T19:33:03.033Z,96022.19
2022-09-24T19:35:28.866Z,96020.75
2022-09-24T19:37:54.663Z,96024.63
2022-09-24T19:40:20.619Z,96020.69
2022-09-24T19:42:46.408Z,96021.66
2022-09-24T19:45:12.322Z,96022.88
2022-09-24T19:47:38.127Z,96012.56
2022-09-24T19:50:04.363Z,96014.00
2022-09-24T19:52:31.384Z,96014.25
2022-09-24T19:54:57.149Z,96014.53
2022-09-24T19:57:22.932Z,96011.88
2022-09-24T19:59:48.678Z,96017.75
2022-09-24T20:02:14.614Z,96017.34
2022-09-24T20:04:40.736Z,96017.94
2022-09-24T20:07:07.065Z,96018.72
2022-09-24T20:09:32.987Z,96018.72
2022-09-24T20:11:59.014Z,96022.16
2022-09-24T20:14:25.115Z,96017.53
2022-09-24T20:16:50.975Z,96020.25
2022-09-24T20:19:17.202Z,96019.53
2022-09-24T20:21:43.031Z,96022.69
2022-09-24T20:24:11.508Z,96024.28
2022-09-24T20:26:56.080Z,96025.59
2022-09-24T20:29:22.738Z,96029.81
2022-09-24T20:31:52.399Z,96034.31
2022-09-24T20:34:20.511Z,96025.09
2022-09-24T20:36:46.879Z,96031.94
2022-09-24T20:39:12.696Z,96030.38
2022-09-24T20:41:38.453Z,96030.50
2022-09-24T20:44:04.279Z,96027.47
2022-09-24T20:46:30.209Z,96033.00
2022-09-24T20:48:58.334Z,96031.50
2022-09-24T20:51:25.617Z,96040.69
2022-09-24T20:53:53.058Z,96036.53
2022-09-24T20:56:19.678Z,96035.41
2022-09-24T20:58:49.577Z,96039.88
2022-09-24T21:01:16.798Z,96034.38
2022-09-24T21:03:44.995Z,96033.81
2022-09-24T21:06:12.018Z,96031.94
2022-09-24T21:08:40.150Z,96033.19
2022-09-24T21:11:08.457Z,96032.53
2022-09-24T21:13:38.844Z,96032.91
2022-09-24T21:16:04.845Z,96030.97
2022-09-24T21:18:43.713Z,96038.19
2022-09-24T21:21:17.651Z,96035.28
2022-09-24T21:23:44.997Z,96047.44
2022-09-24T21:26:17.956Z,96043.22
2022-09-24T21:28:48.244Z,96043.72
2022-09-24T21:31:16.445Z,96040.63
2022-09-24T21:33:47.143Z,96046.53
2022-09-24T21:36:17.891Z,96043.78
2022-09-24T21:38:53.756Z,96045.06
2022-09-24T21:41:23.969Z,96041.78
2022-09-24T21:43:50.058Z,96044.09
2022-09-24T21:46:15.973Z,96053.25
2022-09-24T21:48:41.855Z,96050.00
2022-09-24T21:51:10.537Z,96047.56
2022-09-24T21:53:37.167Z,96045.13
2022-09-24T21:56:04.349Z,96045.72
2022-09-24T21:58:30.633Z,96044.97
2022-09-24T22:01:04.682Z,96046.09
2022-09-24T22:03:31.234Z,96048.56
2022-09-24T22:05:58.909Z,96046.97
2022-09-24T22:08:28.376Z,96054.22
2022-09-24T22:11:03.683Z,96047.50
2022-09-24T22:13:31.349Z,96051.56
2022-09-24T22:15:59.092Z,96043.22
2022-09-24T22:18:27.331Z,96047.63
2022-09-24T22:20:54.726Z,96045.06
2022-09-24T22:23:21.448Z,96048.13
2022-09-24T22:25:53.496Z,96040.09
2022-09-24T22:28:23.631Z,96041.63
2022-09-24T22:30:50.489Z,96042.84
2022-09-24T22:33:36.481Z,96048.13
2022-09-24T22:36:02.671Z,96039.38
2022-09-24T22:38:30.151Z,96039.25
2022-09-24T22:40:58.955Z,96033.91
2022-09-24T22:43:24.772Z,96042.41
2022-09-24T22:45:59.503Z,96035.69
2022-09-24T22:48:25.366Z,96036.53
2022-09-24T22:50:51.371Z,96041.09
2022-09-24T22:53:17.442Z,96038.47
2022-09-24T22:55:43.361Z,96041.81
2022-09-24T22:58:09.152Z,96047.25
2022-09-24T23:00:35.914Z,96040.47
2022-09-24T23:03:02.254Z,96041.59
2022-09-24T23:05:29.012Z,96047.72
2022-09-24T23:07:55.438Z,96046.69
2022-09-24T23:10:21.407Z,96044.63
2022-09-24T23:12:47.479Z,96037.34
2022-09-24T23:15:13.627Z,96036.50
2022-09-24T23:17:39.453Z,96040.88
2022-09-24T23:20:07.162Z,96036.41
2022-09-24T23:22:32.916Z,96038.56
2022-09-24T23:24:58.801Z,96039.19
2022-09-24T23:27:24.881Z,96034.22
2022-09-24T23:29:51.961Z,96031.47
2022-09-24T23:32:18.601Z,96036.31
2022-09-24T23:34:45.801Z,96034.53
2022-09-24T23:37:11.982Z,96038.09
2022-09-24T23:39:38.723Z,96032.41
2022-09-24T23:42:06.227Z,96040.47
2022-09-24T23:44:33.517Z,96038.34
2022-09-24T23:47:00.660Z,96039.94
2022-09-24T23:49:27.227Z,96038.63
2022-09-24T23:51:53.157Z,96036.16
2022-09-24T23:54:19.456Z,96037.28
2022-09-24T23:56:45.304Z,96036.31
2022-09-24T23:59:11.201Z,96033.34
